createdAt,value
2018-01-10T00:01:54.982Z,99.90
2018-01-10T00:04:22.536Z,99.90
2018-01-10T00:06:50.057Z,99.00
2018-01-10T00:09:17.622Z,99.90
2018-01-10T00:11:45.150Z,97.50
2018-01-10T00:14:12.639Z,95.50
2018-01-10T00:16:40.157Z,95.20
2018-01-10T00:19:08.568Z,94.50
2018-01-10T00:21:36.062Z,94.40
2018-01-10T00:24:03.554Z,93.40
2018-01-10T00:26:31.075Z,93.00
2018-01-10T00:28:59.174Z,94.10
2018-01-10T00:31:26.714Z,97.10
2018-01-10T00:33:54.201Z,97.00
2018-01-10T00:36:21.690Z,97.50
2018-01-10T00:38:49.210Z,99.90
2018-01-10T00:41:16.694Z,99.90
2018-01-10T00:43:44.212Z,99.90
2018-01-10T00:46:11.777Z,98.70
2018-01-10T00:48:39.295Z,96.20
2018-01-10T00:51:06.788Z,96.20
2018-01-10T00:53:35.075Z,95.40
2018-01-10T00:56:02.558Z,95.30
2018-01-10T00:58:30.073Z,95.80
2018-01-10T01:00:58.343Z,95.80
2018-01-10T01:03:25.862Z,95.80
2018-01-10T01:05:54.590Z,95.90
2018-01-10T01:08:22.136Z,96.10
2018-01-10T01:10:49.700Z,95.60
2018-01-10T01:13:17.242Z,94.60
2018-01-10T01:15:44.727Z,95.10
2018-01-10T01:18:12.205Z,94.10
2018-01-10T01:20:39.731Z,95.40
2018-01-10T01:23:07.224Z,96.70
2018-01-10T01:25:34.721Z,95.20
2018-01-10T01:28:02.986Z,94.40
2018-01-10T01:30:30.514Z,94.30
2018-01-10T01:32:58.011Z,93.20
2018-01-10T01:35:25.565Z,92.80
2018-01-10T01:37:53.087Z,93.10
2018-01-10T01:40:20.617Z,93.00
2018-01-10T01:42:48.100Z,93.20
2018-01-10T01:45:16.381Z,93.50
2018-01-10T01:47:44.626Z,92.70
2018-01-10T01:50:12.146Z,92.70
2018-01-10T01:52:39.630Z,93.40
2018-01-10T01:55:07.163Z,93.80
2018-01-10T01:57:34.661Z,94.00
2018-01-10T02:00:02.190Z,93.80
2018-01-10T02:02:29.679Z,94.40
2018-01-10T02:04:57.323Z,94.40
2018-01-10T02:07:24.808Z,94.00
2018-01-10T02:09:52.288Z,93.70
2018-01-10T02:12:19.793Z,94.30
2018-01-10T02:14:48.093Z,92.00
2018-01-10T02:17:15.590Z,91.90
2018-01-10T02:19:43.118Z,91.90
2018-01-10T02:22:10.611Z,91.60
2018-01-10T02:24:38.149Z,91.70
2018-01-10T02:27:05.711Z,91.70
2018-01-10T02:29:33.206Z,92.40
2018-01-10T02:32:00.691Z,92.40
2018-01-10T02:34:28.222Z,92.30
2018-01-10T02:36:55.700Z,91.80
2018-01-10T02:39:23.186Z,92.10
2018-01-10T02:41:50.705Z,91.80
2018-01-10T02:44:18.253Z,91.60
2018-01-10T02:46:45.744Z,91.20
2018-01-10T02:49:13.246Z,92.00
2018-01-10T02:51:40.774Z,91.80
2018-01-10T02:54:08.257Z,92.20
2018-01-10T02:56:35.803Z,92.70
2018-01-10T02:59:03.280Z,93.10
2018-01-10T03:01:30.766Z,93.20
2018-01-10T03:03:59.057Z,93.20
2018-01-10T03:06:27.311Z,93.20
2018-01-10T03:08:54.830Z,93.10
2018-01-10T03:11:22.562Z,93.90
2018-01-10T03:13:50.834Z,93.60
2018-01-10T03:16:19.085Z,93.80
2018-01-10T03:18:46.603Z,93.70
2018-01-10T03:21:14.096Z,93.10
2018-01-10T03:23:41.614Z,92.50
2018-01-10T03:26:09.907Z,93.40
2018-01-10T03:28:37.417Z,93.40
2018-01-10T03:31:04.894Z,92.90
2018-01-10T03:33:32.464Z,93.00
2018-01-10T03:36:00.019Z,92.90
2018-01-10T03:38:27.529Z,92.70
2018-01-10T03:40:55.071Z,92.20
2018-01-10T03:43:23.313Z,91.80
2018-01-10T03:45:50.855Z,91.70
2018-01-10T03:48:18.336Z,91.50
2018-01-10T03:50:45.842Z,91.50
2018-01-10T03:53:14.129Z,91.80
2018-01-10T03:55:42.387Z,91.70
2018-01-10T03:58:09.915Z,91.70
2018-01-10T04:00:37.400Z,91.60
2018-01-10T04:03:04.930Z,91.60
2018-01-10T04:05:32.422Z,91.80
2018-01-10T04:07:59.911Z,91.80
2018-01-10T04:10:27.434Z,91.90
2018-01-10T04:12:54.920Z,91.60
2018-01-10T04:15:22.464Z,92.50
2018-01-10T04:17:50.010Z,92.10
2018-01-10T04:20:17.518Z,92.20
2018-01-10T04:22:45.060Z,92.70
2018-01-10T04:25:12.575Z,92.80
2018-01-10T04:27:40.818Z,92.70
2018-01-10T04:30:08.350Z,92.60
2018-01-10T04:32:35.842Z,92.50
2018-01-10T04:35:03.370Z,92.50
2018-01-10T04:37:30.903Z,92.10
2018-01-10T04:39:59.155Z,91.90
2018-01-10T04:42:26.646Z,91.90
2018-01-10T04:44:54.941Z,93.40
2018-01-10T04:47:22.606Z,93.30
2018-01-10T04:49:50.854Z,92.00
2018-01-10T04:52:18.341Z,91.90
2018-01-10T04:54:46.662Z,91.70
2018-01-10T04:57:14.162Z,91.60
2018-01-10T04:59:41.650Z,91.70
2018-01-10T05:02:09.950Z,91.50
2018-01-10T05:04:37.482Z,91.50
2018-01-10T05:07:05.739Z,92.60
2018-01-10T05:09:33.456Z,92.50
2018-01-10T05:12:00.940Z,92.30
2018-01-10T05:14:28.438Z,91.30
2018-01-10T05:16:55.958Z,90.70
2018-01-10T05:19:23.483Z,92.40
2018-01-10T05:21:51.741Z,99.20
2018-01-10T05:24:19.266Z,99.20
2018-01-10T05:26:46.779Z,99.00
2018-01-10T05:29:14.278Z,97.70
2018-01-10T05:31:41.800Z,96.10
2018-01-10T05:34:09.314Z,94.50
2018-01-10T05:36:36.821Z,94.60
2018-01-10T05:39:04.351Z,96.40
2018-01-10T05:41:31.847Z,97.40
2018-01-10T05:43:59.326Z,98.10
2018-01-10T05:46:26.838Z,97.80
2018-01-10T05:48:54.328Z,96.90
2018-01-10T05:51:21.848Z,96.00
2018-01-10T05:53:49.370Z,95.50
2018-01-10T05:56:16.909Z,95.90
2018-01-10T05:58:44.430Z,95.40
2018-01-10T06:01:12.678Z,94.40
2018-01-10T06:03:40.157Z,94.30
2018-01-10T06:06:08.437Z,93.50
2018-01-10T06:08:36.742Z,92.90
2018-01-10T06:11:04.230Z,92.80
2018-01-10T06:13:31.711Z,91.60
2018-01-10T06:15:59.249Z,91.50
2018-01-10T06:18:26.726Z,90.80
2018-01-10T06:20:54.236Z,86.70
2018-01-10T06:23:22.533Z,87.10
2018-01-10T06:25:50.029Z,87.00
2018-01-10T06:28:17.525Z,87.80
2018-01-10T06:30:45.046Z,92.40
2018-01-10T06:33:12.586Z,92.60
2018-01-10T06:35:40.163Z,92.70
2018-01-10T06:38:07.664Z,91.80
2018-01-10T06:40:35.224Z,91.00
2018-01-10T06:43:02.697Z,90.20
2018-01-10T06:45:30.237Z,86.50
2018-01-10T06:47:57.766Z,84.00
2018-01-10T06:50:25.250Z,85.30
2018-01-10T06:52:52.786Z,85.70
2018-01-10T06:55:21.084Z,87.70
2018-01-10T06:57:48.629Z,87.50
2018-01-10T07:00:16.928Z,87.20
2018-01-10T07:02:44.420Z,87.30
2018-01-10T07:05:11.906Z,89.70
2018-01-10T07:07:39.431Z,92.60
2018-01-10T07:10:06.948Z,92.40
2018-01-10T07:12:34.479Z,92.00
2018-01-10T07:15:01.965Z,89.20
2018-01-10T07:17:29.510Z,89.50
2018-01-10T07:19:56.996Z,90.50
2018-01-10T07:22:24.508Z,91.80
2018-01-10T07:24:51.989Z,92.30
2018-01-10T07:27:19.525Z,91.70
2018-01-10T07:29:47.006Z,91.20
2018-01-10T07:32:14.519Z,90.60
2018-01-10T07:34:42.172Z,90.60
2018-01-10T07:37:09.695Z,90.30
2018-01-10T07:39:37.198Z,91.20
2018-01-10T07:42:04.710Z,92.00
2018-01-10T07:44:32.216Z,93.20
2018-01-10T07:46:59.741Z,96.70
2018-01-10T07:49:27.232Z,97.20
2018-01-10T07:51:54.718Z,97.60
2018-01-10T07:54:22.265Z,99.90
2018-01-10T07:56:49.806Z,99.90
2018-01-10T07:59:17.326Z,91.40
2018-01-10T08:01:46.203Z,94.70
2018-01-10T08:04:13.693Z,94.60
2018-01-10T08:06:41.220Z,94.00
2018-01-10T08:09:08.729Z,94.10
2018-01-10T08:11:36.247Z,91.90
2018-01-10T08:14:03.733Z,90.70
2018-01-10T08:16:32.019Z,91.30
2018-01-10T08:19:00.271Z,90.60
2018-01-10T08:21:28.690Z,90.60
2018-01-10T08:23:56.973Z,88.00
2018-01-10T08:26:25.281Z,88.50
2018-01-10T08:28:52.794Z,88.60
2018-01-10T08:31:20.323Z,88.90
2018-01-10T08:33:47.829Z,88.10
2018-01-10T08:36:15.326Z,85.00
2018-01-10T08:38:42.846Z,83.30
2018-01-10T08:41:10.352Z,87.20
2018-01-10T08:43:37.878Z,87.40
2018-01-10T08:46:05.353Z,88.40
2018-01-10T08:48:33.646Z,88.70
2018-01-10T08:51:01.201Z,88.60
2018-01-10T08:53:29.570Z,84.20
2018-01-10T08:55:57.874Z,83.00
2018-01-10T08:58:25.390Z,83.00
2018-01-10T09:00:52.899Z,81.70
2018-01-10T09:03:20.395Z,81.50
2018-01-10T09:05:47.908Z,77.80
2018-01-10T09:08:15.430Z,73.40
2018-01-10T09:10:42.918Z,71.70
2018-01-10T09:13:10.444Z,69.80
2018-01-10T09:15:37.974Z,68.90
2018-01-10T09:18:06.234Z,67.50
2018-01-10T09:20:33.836Z,67.50
2018-01-10T09:23:01.362Z,65.60
2018-01-10T09:25:28.878Z,62.50
2018-01-10T09:27:56.407Z,62.70
2018-01-10T09:30:24.657Z,67.40
2018-01-10T09:32:52.160Z,67.30
2018-01-10T09:35:19.698Z,69.00
2018-01-10T09:37:47.181Z,68.10
2018-01-10T09:40:15.442Z,68.10
2018-01-10T09:42:42.971Z,68.10
2018-01-10T09:45:10.461Z,68.10
2018-01-10T09:47:38.002Z,69.00
2018-01-10T09:50:05.519Z,66.60
2018-01-10T09:52:33.061Z,64.70
2018-01-10T09:55:00.546Z,61.30
2018-01-10T09:57:29.525Z,62.40
2018-01-10T09:59:57.834Z,60.70
2018-01-10T10:02:25.327Z,60.70
2018-01-10T10:04:52.846Z,58.30
2018-01-10T10:07:21.136Z,57.30
2018-01-10T10:09:48.654Z,57.20
2018-01-10T10:12:16.168Z,55.30
2018-01-10T10:14:43.662Z,54.30
2018-01-10T10:17:11.175Z,54.90
2018-01-10T10:19:39.463Z,56.30
2018-01-10T10:22:06.978Z,56.20
2018-01-10T10:24:34.473Z,56.40
2018-01-10T10:27:02.859Z,58.60
2018-01-10T10:29:31.178Z,57.80
2018-01-10T10:31:58.674Z,57.70
2018-01-10T10:34:26.193Z,56.50
2018-01-10T10:36:53.738Z,57.30
2018-01-10T10:39:22.002Z,56.30
2018-01-10T10:41:49.538Z,56.30
2018-01-10T10:44:17.233Z,56.40
2018-01-10T10:46:44.790Z,54.00
2018-01-10T10:49:12.277Z,54.10
2018-01-10T10:51:40.531Z,48.50
2018-01-10T10:54:08.096Z,48.40
2018-01-10T10:56:35.588Z,48.20
2018-01-10T10:59:03.078Z,45.30
2018-01-10T11:01:30.626Z,46.10
2018-01-10T11:03:58.113Z,45.60
2018-01-10T11:06:25.605Z,42.40
2018-01-10T11:08:53.139Z,41.80
2018-01-10T11:11:20.623Z,38.60
2018-01-10T11:13:48.249Z,40.40
2018-01-10T11:16:15.734Z,38.80
2018-01-10T11:18:43.308Z,37.30
2018-01-10T11:21:10.832Z,40.60
2018-01-10T11:23:38.338Z,38.30
2018-01-10T11:26:05.873Z,37.10
2018-01-10T11:28:33.418Z,34.80
2018-01-10T11:31:00.918Z,35.70
2018-01-10T11:33:28.470Z,34.50
2018-01-10T11:35:55.968Z,34.10
2018-01-10T11:38:23.458Z,31.70
2018-01-10T11:40:51.741Z,33.40
2018-01-10T11:43:20.100Z,33.60
2018-01-10T11:45:47.578Z,33.60
2018-01-10T11:48:15.878Z,28.40
2018-01-10T11:50:44.126Z,27.60
2018-01-10T11:53:11.608Z,27.60
2018-01-10T11:55:39.898Z,29.70
2018-01-10T11:58:07.437Z,29.20
2018-01-10T12:00:35.702Z,28.40
2018-01-10T12:03:03.199Z,28.30
2018-01-10T12:05:31.502Z,29.80
2018-01-10T12:07:58.988Z,29.80
2018-01-10T12:10:26.490Z,27.60
2018-01-10T12:12:54.028Z,28.50
2018-01-10T12:15:21.734Z,29.80
2018-01-10T12:17:49.984Z,28.80
2018-01-10T12:20:17.487Z,28.70
2018-01-10T12:22:45.778Z,32.80
2018-01-10T12:25:13.291Z,32.80
2018-01-10T12:27:40.798Z,31.90
2018-01-10T12:30:08.347Z,30.80
2018-01-10T12:32:36.621Z,30.40
2018-01-10T12:35:04.156Z,31.00
2018-01-10T12:37:31.649Z,29.60
2018-01-10T12:39:59.162Z,29.30
2018-01-10T12:42:26.813Z,28.00
2018-01-10T12:44:54.440Z,28.50
2018-01-10T12:47:21.963Z,29.20
2018-01-10T12:49:50.269Z,28.00
2018-01-10T12:52:17.762Z,27.80
2018-01-10T12:54:46.046Z,26.60
2018-01-10T12:57:14.310Z,26.70
2018-01-10T12:59:41.860Z,26.60
2018-01-10T13:02:09.330Z,25.40
2018-01-10T13:04:36.822Z,25.00
2018-01-10T13:07:04.347Z,25.30
2018-01-10T13:09:31.827Z,26.30
2018-01-10T13:11:59.336Z,28.00
2018-01-10T13:14:26.874Z,29.10
2018-01-10T13:16:55.126Z,30.10
2018-01-10T13:19:22.651Z,30.10
2018-01-10T13:21:50.165Z,31.50
2018-01-10T13:24:17.690Z,33.20
2018-01-10T13:26:45.204Z,34.20
2018-01-10T13:29:13.457Z,35.50
2018-01-10T13:31:40.966Z,35.50
2018-01-10T13:34:08.453Z,38.00
2018-01-10T13:36:35.958Z,37.00
2018-01-10T13:39:03.521Z,38.70
2018-01-10T13:41:31.007Z,38.50
2018-01-10T13:43:59.298Z,38.90
2018-01-10T13:46:26.777Z,38.90
2018-01-10T13:48:54.294Z,37.40
2018-01-10T13:51:21.809Z,36.30
2018-01-10T13:53:49.306Z,35.50
2018-01-10T13:56:16.850Z,33.50
2018-01-10T13:58:44.330Z,32.20
2018-01-10T14:01:11.836Z,31.30
2018-01-10T14:03:39.345Z,30.50
2018-01-10T14:06:06.845Z,28.40
2018-01-10T14:08:35.132Z,29.00
2018-01-10T14:11:03.388Z,31.70
2018-01-10T14:13:30.922Z,31.70
2018-01-10T14:15:58.437Z,34.20
2018-01-10T14:18:26.688Z,36.40
2018-01-10T14:20:54.210Z,36.30
2018-01-10T14:23:21.697Z,38.50
2018-01-10T14:25:49.224Z,39.60
2018-01-10T14:28:16.706Z,40.00
2018-01-10T14:30:44.182Z,39.50
2018-01-10T14:33:11.706Z,40.70
2018-01-10T14:35:39.204Z,41.70
2018-01-10T14:38:06.730Z,43.90
2018-01-10T14:40:34.220Z,44.10
2018-01-10T14:43:01.754Z,45.30
2018-01-10T14:45:30.006Z,47.90
2018-01-10T14:47:57.485Z,47.90
2018-01-10T14:50:25.832Z,50.20
2018-01-10T14:52:53.289Z,50.20
2018-01-10T14:55:20.777Z,50.80
2018-01-10T14:57:48.304Z,51.60
2018-01-10T15:00:15.843Z,52.60
2018-01-10T15:02:43.332Z,53.90
2018-01-10T15:05:10.850Z,55.00
2018-01-10T15:07:39.116Z,55.70
2018-01-10T15:10:06.652Z,55.80
2018-01-10T15:12:34.170Z,56.80
2018-01-10T15:15:01.678Z,58.10
2018-01-10T15:17:29.205Z,58.90
2018-01-10T15:19:56.699Z,60.70
2018-01-10T15:22:24.226Z,61.60
2018-01-10T15:24:51.746Z,63.30
2018-01-10T15:27:19.230Z,64.60
2018-01-10T15:29:47.522Z,65.80
2018-01-10T15:32:15.770Z,65.70
2018-01-10T15:34:43.302Z,65.50
2018-01-10T15:37:10.782Z,66.50
2018-01-10T15:39:38.276Z,66.60
2018-01-10T15:42:05.779Z,66.70
2018-01-10T15:44:33.313Z,67.00
2018-01-10T15:47:01.578Z,67.10
2018-01-10T15:49:29.066Z,67.00
2018-01-10T15:51:57.374Z,67.90
2018-01-10T15:54:24.891Z,67.80
2018-01-10T15:56:53.163Z,67.90
2018-01-10T15:59:20.682Z,67.90
2018-01-10T16:01:48.182Z,68.20
2018-01-10T16:04:15.693Z,68.00
2018-01-10T16:06:43.215Z,67.90
2018-01-10T16:09:10.730Z,67.50
2018-01-10T16:11:38.257Z,67.50
2018-01-10T16:14:06.500Z,68.20
2018-01-10T16:16:34.024Z,68.10
2018-01-10T16:19:01.570Z,68.70
2018-01-10T16:21:29.830Z,69.30
2018-01-10T16:23:57.324Z,69.20
2018-01-10T16:26:24.842Z,71.00
2018-01-10T16:28:52.361Z,70.80
2018-01-10T16:31:19.895Z,71.20
2018-01-10T16:33:47.419Z,71.50
2018-01-10T16:36:14.906Z,72.30
2018-01-10T16:38:42.414Z,72.40
2018-01-10T16:41:09.926Z,73.20
2018-01-10T16:43:37.421Z,73.00
2018-01-10T16:46:05.711Z,72.90
2018-01-10T16:48:33.218Z,72.80
2018-01-10T16:51:00.735Z,73.20
2018-01-10T16:53:28.990Z,74.30
2018-01-10T16:55:56.480Z,74.20
2018-01-10T16:58:24.764Z,74.70
2018-01-10T17:00:52.254Z,74.70
2018-01-10T17:03:19.762Z,74.50
2018-01-10T17:05:47.250Z,74.60
2018-01-10T17:08:14.778Z,74.90
2018-01-10T17:10:42.265Z,75.10
2018-01-10T17:13:10.551Z,75.60
2018-01-10T17:15:38.831Z,75.20
2018-01-10T17:18:07.120Z,75.30
2018-01-10T17:20:34.606Z,75.30
2018-01-10T17:23:02.093Z,75.20
2018-01-10T17:25:29.618Z,74.90
2018-01-10T17:27:57.094Z,75.00
2018-01-10T17:30:24.587Z,74.80
2018-01-10T17:32:52.293Z,74.60
2018-01-10T17:35:20.560Z,74.30
2018-01-10T17:37:48.823Z,74.20
2018-01-10T17:40:16.360Z,74.20
2018-01-10T17:42:43.855Z,73.80
2018-01-10T17:45:11.351Z,73.70
2018-01-10T17:47:38.881Z,73.50
2018-01-10T17:50:06.379Z,72.90
2018-01-10T17:52:33.876Z,72.90
2018-01-10T17:55:01.493Z,72.90
2018-01-10T17:57:29.738Z,74.10
2018-01-10T17:59:57.221Z,74.10
2018-01-10T18:02:24.734Z,74.90
2018-01-10T18:04:52.211Z,76.00
2018-01-10T18:07:19.734Z,75.60
2018-01-10T18:09:48.018Z,75.90
2018-01-10T18:12:16.271Z,75.70
2018-01-10T18:14:43.782Z,75.60
2018-01-10T18:17:11.309Z,74.50
2018-01-10T18:19:39.558Z,75.20
2018-01-10T18:22:07.084Z,75.20
2018-01-10T18:24:34.568Z,75.80
2018-01-10T18:27:02.153Z,75.80
2018-01-10T18:29:29.671Z,76.20
2018-01-10T18:31:57.214Z,76.50
2018-01-10T18:34:25.485Z,76.00
2018-01-10T18:36:52.968Z,75.90
2018-01-10T18:39:20.491Z,76.40
2018-01-10T18:41:47.989Z,77.10
2018-01-10T18:44:16.274Z,77.70
2018-01-10T18:46:44.551Z,77.40
2018-01-10T18:49:12.850Z,77.20
2018-01-10T18:51:40.401Z,77.10
2018-01-10T18:54:08.649Z,78.20
2018-01-10T18:56:36.170Z,78.10
2018-01-10T18:59:03.678Z,78.80
2018-01-10T19:01:31.195Z,79.20
2018-01-10T19:03:58.694Z,79.00
2018-01-10T19:06:26.208Z,79.20
2018-01-10T19:08:53.700Z,79.90
2018-01-10T19:11:21.216Z,80.00
2018-01-10T19:13:49.490Z,82.90
2018-01-10T19:16:17.786Z,83.20
2018-01-10T19:18:45.285Z,83.20
2018-01-10T19:21:12.818Z,83.30
2018-01-10T19:23:40.306Z,82.90
2018-01-10T19:26:07.807Z,82.80
2018-01-10T19:28:35.336Z,82.30
2018-01-10T19:31:02.827Z,82.10
2018-01-10T19:33:30.357Z,81.90
2018-01-10T19:35:57.848Z,81.80
2018-01-10T19:38:25.334Z,80.90
2018-01-10T19:40:52.852Z,80.20
2018-01-10T19:43:20.343Z,79.50
2018-01-10T19:45:47.874Z,79.40
2018-01-10T19:48:15.358Z,79.20
2018-01-10T19:50:42.881Z,79.50
2018-01-10T19:53:10.395Z,80.20
2018-01-10T19:55:37.920Z,80.20
2018-01-10T19:58:05.397Z,80.10
2018-01-10T20:00:32.973Z,80.10
2018-01-10T20:03:00.459Z,80.20
2018-01-10T20:05:27.949Z,80.80
2018-01-10T20:07:55.478Z,80.80
2018-01-10T20:10:22.963Z,80.80
2018-01-10T20:12:51.263Z,81.50
2018-01-10T20:15:18.759Z,81.50
2018-01-10T20:17:46.247Z,81.40
2018-01-10T20:20:13.769Z,81.80
2018-01-10T20:22:41.273Z,82.40
2018-01-10T20:25:08.813Z,82.90
2018-01-10T20:27:36.295Z,83.30
2018-01-10T20:30:03.810Z,83.50
2018-01-10T20:32:31.296Z,83.60
2018-01-10T20:34:58.833Z,83.80
2018-01-10T20:37:26.315Z,84.60
2018-01-10T20:39:53.819Z,85.00
2018-01-10T20:42:21.528Z,84.80
2018-01-10T20:44:49.058Z,84.60
2018-01-10T20:47:16.554Z,84.60
2018-01-10T20:49:44.076Z,84.50
2018-01-10T20:52:11.589Z,84.90
2018-01-10T20:54:39.074Z,84.70
2018-01-10T20:57:06.631Z,85.00
2018-01-10T20:59:35.062Z,85.20
2018-01-10T21:02:02.561Z,85.20
2018-01-10T21:04:30.103Z,84.70
2018-01-10T21:06:59.192Z,83.90
2018-01-10T21:09:27.443Z,84.10
2018-01-10T21:11:54.976Z,83.40
2018-01-10T21:14:22.467Z,83.40
2018-01-10T21:16:49.993Z,80.70
2018-01-10T21:19:17.483Z,80.60
2018-01-10T21:21:45.096Z,80.70
2018-01-10T21:24:13.348Z,81.80
2018-01-10T21:26:40.836Z,81.70
2018-01-10T21:29:09.121Z,81.40
2018-01-10T21:31:37.370Z,81.30
2018-01-10T21:34:04.897Z,81.30
2018-01-10T21:36:32.377Z,81.00
2018-01-10T21:38:59.859Z,80.90
2018-01-10T21:41:27.382Z,81.10
2018-01-10T21:43:54.878Z,81.40
2018-01-10T21:46:22.368Z,82.00
2018-01-10T21:48:49.891Z,81.90
2018-01-10T21:51:17.414Z,82.40
2018-01-10T21:53:45.674Z,83.10
2018-01-10T21:56:13.155Z,83.10
2018-01-10T21:58:41.427Z,82.90
2018-01-10T22:01:09.706Z,83.30
2018-01-10T22:03:37.972Z,83.90
2018-01-10T22:06:05.463Z,83.90
2018-01-10T22:08:32.986Z,84.60
2018-01-10T22:11:00.492Z,84.30
2018-01-10T22:13:28.011Z,84.00
2018-01-10T22:15:55.512Z,83.30
2018-01-10T22:18:23.797Z,82.40
2018-01-10T22:20:52.064Z,82.40
2018-01-10T22:23:20.374Z,82.00
2018-01-10T22:25:47.898Z,81.90
2018-01-10T22:28:15.383Z,81.70
2018-01-10T22:30:42.863Z,82.60
2018-01-10T22:33:10.393Z,83.40
2018-01-10T22:35:38.642Z,83.70
2018-01-10T22:38:06.148Z,83.60
2018-01-10T22:40:34.448Z,83.10
2018-01-10T22:43:01.938Z,83.10
2018-01-10T22:45:29.434Z,84.00
2018-01-10T22:47:56.966Z,85.70
2018-01-10T22:50:24.450Z,86.20
2018-01-10T22:52:51.946Z,86.10
2018-01-10T22:55:20.228Z,86.80
2018-01-10T22:57:47.713Z,86.80
2018-01-10T23:00:15.227Z,86.60
2018-01-10T23:02:42.714Z,87.20
2018-01-10T23:05:10.999Z,87.20
2018-01-10T23:07:38.489Z,87.20
2018-01-10T23:10:06.003Z,87.40
2018-01-10T23:12:33.519Z,88.10
2018-01-10T23:15:01.049Z,88.40
2018-01-10T23:17:29.295Z,88.30
2018-01-10T23:19:56.819Z,88.20
2018-01-10T23:22:24.341Z,88.40
2018-01-10T23:24:51.807Z,88.30
2018-01-10T23:27:20.096Z,89.20
2018-01-10T23:29:48.337Z,90.30
2018-01-10T23:32:15.959Z,90.30
2018-01-10T23:34:43.473Z,91.20
2018-01-10T23:37:10.985Z,91.00
2018-01-10T23:39:38.477Z,91.30
2018-01-10T23:42:06.015Z,91.50
2018-01-10T23:44:33.533Z,91.90
2018-01-10T23:47:01.052Z,91.90
2018-01-10T23:49:28.525Z,92.00
2018-01-10T23:51:56.046Z,92.00
2018-01-10T23:54:24.290Z,93.20
2018-01-10T23:56:51.803Z,93.10
2018-01-10T23:59:19.314Z,94.10
